Mengxian, China
Current Conditions -  °F | °C
As of 11:00 PM on Monday 24 Nov 2014 (Local Time) from ZHCC Reporting Station
Haze Haze  
Wind Chill: 44°   Ceiling: Unl
Heat Index: 46°   Visibility: 1.2mi
Dew Point: 37°   Wind: 4mph
Humidity: 71%   Direction: 350°N
Pressure: 30.27"   Gusts: NA
Location:  34.9°N, 112.78°E
Report Text: ZHCC 241500Z 35002MPS 300V040 2000 HZ NSC 08/03 Q1025 NOSIG
Loading
Personal Weather Stations






























Interactive Weather Map New forecast layout! Learn more

10-Day Weather Forecast

Advertisements
Track Severe Weather on mobile